Heli Holland Heliport

NL-0032 · Drenthe, 荷兰

METAR的历史 NL-0032 · Heli Holland Heliport

下面你可以看到过去几天的METARs。 选择年份以浏览从2007年开始的旧METAR。

2024年7月15日

时间 代码 天气 温度 能见度 天花板 METAR/SPECI
20:25
V
20 °C 10 km+ - 040° 040° 8 kt METAR EHGG 151825Z AUTO 04008KT 360V070 9999 NSC 20/16 Q1010 NOSIG
19:55
V
20 °C 10 km+ - 030° 030° 7 kt METAR EHGG 151755Z AUTO 03007KT 9999 NSC 20/16 Q1010 NOSIG
19:25
V
20 °C 10 km+ - 040° 040° 8 kt METAR EHGG 151725Z AUTO 04008KT 9999 NSC 20/16 Q1010 NOSIG
18:55
V
21 °C 10 km+ - 040° 040° 8 kt METAR EHGG 151655Z AUTO 04008KT 350V070 9999 NSC 21/16 Q1009 NOSIG
18:25
V
22 °C 10 km+ 4.700 ft 050° 050° 8 kt METAR EHGG 151625Z AUTO 05008KT 020V080 9999 BKN047/// 22/16 Q1010 NOSIG
17:55
V
21 °C 10 km+ - 040° 040° 11 kt METAR EHGG 151555Z AUTO 04011KT 360V060 9999 NSC 21/16 Q1010 NOSIG
17:25
V
24 °C 10 km+ - Var Var 2 kt METAR EHGG 151525Z AUTO VRB02KT 9999 NSC 24/12 Q1010 NOSIG
16:55
V
24 °C 10 km+ - 130° 130° 5 kt METAR EHGG 151455Z AUTO 13005KT 090V190 9999 FEW048 24/14 Q1010 NOSIG
16:25
V
24 °C 10 km+ - 280° 280° 4 kt METAR EHGG 151425Z AUTO 28004KT 210V350 9999 NSC 24/12 Q1011 NOSIG
15:55
V
23 °C 10 km+ - 290° 290° 2 kt METAR EHGG 151355Z AUTO 29002KT 9999 NSC 23/13 Q1011 NOSIG
15:25
V
23 °C 10 km+ - 270° 270° 4 kt METAR EHGG 151325Z AUTO 27004KT 220V310 9999 FEW044 SCT049 23/12 Q1011 NOSIG
14:55
V
23 °C 10 km+ 4.800 ft Var Var 1 kt METAR EHGG 151255Z AUTO VRB01KT 9999 SCT043/// BKN048/// 23/12 Q1011 NOSIG
14:25
V
23 °C 10 km+ 4.800 ft 220° 220° 4 kt METAR EHGG 151225Z AUTO 22004KT 170V270 9999 FEW043 BKN048 23/12 Q1011 NOSIG
13:55
V
23 °C 10 km+ 4.600 ft 270° 270° 6 kt METAR EHGG 151155Z AUTO 27006KT 190V320 9999 SCT041 BKN046 23/12 Q1011 NOSIG
13:25
V
23 °C 10 km+ - 240° 240° 5 kt METAR EHGG 151125Z AUTO 24005KT 170V320 9999 SCT039/// SCT047/// 23/14 Q1012 NOSIG
12:55
V
22 °C 10 km+ - Var Var 6 kt METAR EHGG 151055Z AUTO VRB06KT 9999 SCT037 SCT044 22/14 Q1012 NOSIG
12:25
V
22 °C 10 km+ - 230° 230° 6 kt METAR EHGG 151025Z AUTO 23006KT 190V270 9999 FEW037 22/14 Q1012 NOSIG
11:55
V
21 °C 10 km+ - 230° 230° 8 kt METAR EHGG 150955Z AUTO 23008KT 180V260 9999 NCD 21/14 Q1012 NOSIG
11:25
V
21 °C 10 km+ - 220° 220° 8 kt METAR EHGG 150925Z AUTO 22008KT 180V250 9999 FEW026 SCT031 21/14 Q1012 NOSIG
10:55
V
20 °C 10 km+ - 230° 230° 7 kt METAR EHGG 150855Z AUTO 23007KT 190V270 9999 NCD 20/14 Q1012 NOSIG
10:25
V
19 °C 10 km+ - 210° 210° 8 kt METAR EHGG 150825Z AUTO 21008KT 170V260 9999 FEW021/// 19/14 Q1012 NOSIG
09:55
V
19 °C 10 km+ - 240° 240° 6 kt METAR EHGG 150755Z AUTO 24006KT 210V290 9999 NCD 19/14 Q1012 NOSIG
09:25
V
18 °C 10 km+ - 220° 220° 7 kt METAR EHGG 150725Z AUTO 22007KT 190V250 9999 NCD 18/14 Q1012 NOSIG
08:55
V
17 °C 10 km+ - 220° 220° 6 kt METAR EHGG 150655Z AUTO 22006KT 190V250 9999 NCD 17/14 Q1012 NOSIG
08:25
V
15 °C 10 km+ - 210° 210° 5 kt METAR EHGG 150625Z AUTO 21005KT 9999 NCD 15/13 Q1012 NOSIG
07:55
V
14 °C 10 km+ - 210° 210° 5 kt METAR EHGG 150555Z AUTO 21005KT 160V240 9999 NCD 14/12 Q1012 NOSIG
07:25
V
13 °C 10 km+ - 200° 200° 4 kt METAR EHGG 150525Z AUTO 20004KT 150V230 9999 NCD 13/11 Q1012 NOSIG
06:55
V
12 °C 10 km+ - 220° 220° 4 kt METAR EHGG 150455Z AUTO 22004KT 9999 NSC 12/11 Q1012 NOSIG
06:25
V
12 °C 10 km+ - 190° 190° 6 kt METAR EHGG 150425Z AUTO 19006KT 9999 NSC 12/11 Q1011
05:55
V
11 °C 10 km+ - 200° 200° 4 kt METAR EHGG 150355Z AUTO 20004KT 9999 NCD 11/10 Q1011
05:25
V
11 °C 10 km+ - 190° 190° 4 kt METAR EHGG 150325Z AUTO 19004KT 9999 NCD 11/10 Q1011
04:55
V
11 °C 10 km+ - 200° 200° 5 kt METAR EHGG 150255Z AUTO 20005KT 9999 NCD 11/10 Q1011
04:25
V
11 °C 10 km+ - 210° 210° 5 kt METAR EHGG 150225Z AUTO 21005KT 9999 NCD 11/09 Q1011
03:55
V
12 °C 10 km+ - 200° 200° 5 kt METAR EHGG 150155Z AUTO 20005KT 9999 NCD 12/10 Q1011
03:25
V
13 °C 10 km+ - 210° 210° 6 kt METAR EHGG 150125Z AUTO 21006KT 9999 NSC 13/11 Q1011
02:55
V
13 °C 10 km+ - 210° 210° 5 kt METAR EHGG 150055Z AUTO 21005KT 9999 NSC 13/11 Q1011
02:25
V
13 °C 10 km+ - 200° 200° 5 kt METAR EHGG 150025Z AUTO 20005KT 9999 NSC 13/11 Q1011
01:55
V
13 °C 10 km+ - 210° 210° 6 kt METAR EHGG 142355Z AUTO 21006KT 9999 NSC 13/11 Q1011
01:25
V
13 °C 10 km+ - 220° 220° 6 kt METAR EHGG 142325Z AUTO 22006KT 9999 NSC 13/11 Q1011
00:55
V
14 °C 10 km+ - 200° 200° 7 kt METAR EHGG 142255Z AUTO 20007KT 9999 NSC 14/12 Q1011
00:25
V
15 °C 10 km+ - 200° 200° 6 kt METAR EHGG 142225Z AUTO 20006KT 9999 NSC 15/12 Q1011

2024年7月14日

时间 代码 天气 温度 能见度 天花板 METAR/SPECI
23:55
V
15 °C 10 km+ - 210° 210° 5 kt METAR EHGG 142155Z AUTO 21005KT 9999 NSC 15/12 Q1011
23:25
V
15 °C 10 km+ - 210° 210° 5 kt METAR EHGG 142125Z AUTO 21005KT 9999 NSC 15/12 Q1011
22:55
V
12 °C 10 km+ - 200° 200° 5 kt METAR EHGG 142055Z AUTO 20005KT 9999 NSC 12/10 Q1011
22:25
V
13 °C 10 km+ - 210° 210° 5 kt METAR EHGG 142025Z AUTO 21005KT 9999 NSC 13/11 Q1011 NOSIG
21:55
V
15 °C 10 km+ - 230° 230° 6 kt METAR EHGG 141955Z AUTO 23006KT 9999 NSC 15/11 Q1011 NOSIG
21:25
V
16 °C 10 km+ - 230° 230° 8 kt METAR EHGG 141925Z AUTO 23008KT 9999 NSC 16/12 Q1011 NOSIG
20:55
V
17 °C 10 km+ - 230° 230° 10 kt METAR EHGG 141855Z AUTO 23010KT 9999 FEW039/// 17/11 Q1011 NOSIG
20:25
V
18 °C 10 km+ - 240° 240° 10 kt METAR EHGG 141825Z AUTO 24010KT 210V270 9999 NSC 18/12 Q1011 NOSIG
19:55
V
18 °C 10 km+ - 240° 240° 12 kt METAR EHGG 141755Z AUTO 24012KT 210V270 9999 NSC 18/11 Q1011 NOSIG
19:25
V
18 °C 10 km+ - 240° 240° 13 kt METAR EHGG 141725Z AUTO 24013KT 210V270 9999 NSC 18/11 Q1010 NOSIG
18:55
V
19 °C 10 km+ - 240° 240° 18 kt METAR EHGG 141655Z AUTO 24018KT 200V270 9999 NSC 19/11 Q1010 NOSIG
18:25
V
19 °C 10 km+ - 240° 240° 12 kt METAR EHGG 141625Z AUTO 24012KT 9999 NSC 19/12 Q1010 NOSIG
17:55
V
19 °C 10 km+ - 240° 240° 17 kt METAR EHGG 141555Z AUTO 24017KT 210V280 9999 NSC 19/12 Q1010 NOSIG
17:25
V
20 °C 10 km+ - 240° 240° 16 - 26 kt METAR EHGG 141525Z AUTO 24016G26KT 210V280 9999 SCT036/// SCT042/// 20/12 Q1010 NOSIG
16:55
V
20 °C 10 km+ - 230° 230° 18 kt METAR EHGG 141455Z AUTO 23018KT 200V270 9999 FEW037/// 20/12 Q1010 NOSIG
16:25
V
20 °C 10 km+ - 240° 240° 19 kt METAR EHGG 141425Z AUTO 24019KT 200V270 9999 NSC 20/12 Q1010 NOSIG
15:55
V
19 °C 10 km+ 4.200 ft 240° 240° 13 kt METAR EHGG 141355Z AUTO 24013KT 200V290 9999 SCT037/// BKN042/// BKN047/// 19/13 Q1010 NOSIG
15:25
V
19 °C 10 km+ 3.700 ft 230° 230° 12 kt METAR EHGG 141325Z AUTO 23012KT 200V260 9999 SCT032/// BKN037/// BKN045/// 19/14 Q1010 TEMPO 6000 SHRA FEW020CB
14:55
M
18 °C 10 km+ 2.900 ft 230° 230° 8 kt METAR EHGG 141255Z AUTO 23008KT 200V260 9999 BKN029 BKN034 OVC038 18/15 Q1010 TEMPO 6000 SHRA FEW020CB
14:25
V
17 °C 10 km+ - 200° 200° 15 kt METAR EHGG 141225Z AUTO 20015KT 170V240 9999 RA FEW017/// SCT045/// 17/14 Q1010 TEMPO 6000 SHRA FEW020CB
13:55
V
19 °C 10 km+ 4.100 ft 210° 210° 16 kt METAR EHGG 141155Z AUTO 21016KT 9999 FEW028/// SCT034/// BKN041/// 19/13 Q1010 TEMPO 6000 SHRA FEW020CB
13:25
V
18 °C 10 km+ - 210° 210° 9 kt METAR EHGG 141125Z AUTO 21009KT 180V240 9999 FEW031/// SCT040/// 18/13 Q1010 NOSIG
12:55
V
18 °C 10 km+ 3.600 ft 210° 210° 16 kt METAR EHGG 141055Z AUTO 21016KT 9999 SCT031/// BKN036/// BKN043/// 18/13 Q1010 TEMPO 6000 SHRA FEW020CB
12:25
V
19 °C 10 km+ - 210° 210° 16 kt METAR EHGG 141025Z AUTO 21016KT 170V240 9999 FEW031/// SCT036/// 19/13 Q1010 TEMPO 6000 SHRA FEW020CB
11:55
M
19 °C 10 km+ 2.800 ft 210° 210° 15 kt METAR EHGG 140955Z AUTO 21015KT 180V250 9999 BKN028 BKN033 OVC037 19/13 Q1010 TEMPO 6000 SHRA FEW020CB
11:25
V
19 °C 10 km+ 3.200 ft 220° 220° 16 kt METAR EHGG 140925Z AUTO 22016KT 180V250 9999 SCT029 BKN032 19/13 Q1010 NOSIG
10:55
V
17 °C 10 km+ - 220° 220° 14 kt METAR EHGG 140855Z AUTO 22014KT 180V250 9999 FEW024/// SCT027/// 17/12 Q1010 NOSIG
10:25
V
18 °C 10 km+ - 200° 200° 14 kt METAR EHGG 140825Z AUTO 20014KT 170V240 9999 FEW020/// SCT025/// 18/13 Q1010 NOSIG
09:55
V
17 °C 10 km+ - 200° 200° 13 kt METAR EHGG 140755Z AUTO 20013KT 170V230 9999 NSC 17/13 Q1010 NOSIG
09:25
V
16 °C 10 km+ - 200° 200° 13 kt METAR EHGG 140725Z AUTO 20013KT 160V230 9999 NSC 16/13 Q1010 NOSIG
08:55
V
15 °C 10 km+ - 200° 200° 11 kt METAR EHGG 140655Z AUTO 20011KT 160V240 9999 NSC 15/12 Q1010 NOSIG
08:25
V
15 °C 10 km+ 4.500 ft 200° 200° 12 kt METAR EHGG 140625Z AUTO 20012KT 170V230 9999 BKN045/// 15/12 Q1010 NOSIG
07:55
V
14 °C 10 km+ - 200° 200° 10 kt METAR EHGG 140555Z AUTO 20010KT 160V230 9999 SCT047 14/12 Q1010 NOSIG
07:25
V
14 °C 10 km+ - 190° 190° 9 kt METAR EHGG 140525Z AUTO 19009KT 150V220 9999 NSC 14/11 Q1010 NOSIG
06:55
V
13 °C 10 km+ - 190° 190° 10 kt METAR EHGG 140455Z AUTO 19010KT 160V220 9999 NSC 13/11 Q1010 TEMPO 6000 SHRA FEW020CB
06:25
V
13 °C 10 km+ - 190° 190° 8 kt METAR EHGG 140425Z AUTO 19008KT 9999 NSC 13/11 Q1010 NOSIG
05:55
V
13 °C 10 km+ - 190° 190° 9 kt METAR EHGG 140355Z AUTO 19009KT 160V220 9999 NSC 13/11 Q1010
05:25
V
13 °C 10 km+ - 190° 190° 8 kt METAR EHGG 140325Z AUTO 19008KT 160V220 9999 SCT049 13/11 Q1010
04:55
V
13 °C 10 km+ - 190° 190° 8 kt METAR EHGG 140255Z AUTO 19008KT 9999 NSC 13/11 Q1010
04:25
V
13 °C 10 km+ 4.400 ft 190° 190° 8 kt METAR EHGG 140225Z AUTO 19008KT 9999 OVC044/// 13/11 Q1010
03:55
V
13 °C 10 km+ 4.100 ft 200° 200° 8 kt METAR EHGG 140155Z AUTO 20008KT 9999 OVC041/// 13/11 Q1010
03:25
V
13 °C 10 km+ 4.300 ft 200° 200° 9 kt METAR EHGG 140125Z AUTO 20009KT 170V230 9999 OVC043 13/11 Q1010
02:55
V
13 °C 10 km+ 3.600 ft 200° 200° 9 kt METAR EHGG 140055Z AUTO 20009KT 9999 SCT031 BKN036 OVC042 13/11 Q1010
02:25
V
13 °C 10 km+ 3.300 ft 200° 200° 9 kt METAR EHGG 140025Z AUTO 20009KT 170V230 9999 OVC033/// 13/11 Q1011
01:55
V
14 °C 10 km+ 4.100 ft 200° 200° 9 kt METAR EHGG 132355Z AUTO 20009KT 170V230 9999 BKN041 OVC045 14/11 Q1011
01:25
V
14 °C 10 km+ 3.600 ft 200° 200° 10 kt METAR EHGG 132325Z AUTO 20010KT 9999 BKN036 OVC040 14/12 Q1011
00:55
V
14 °C 10 km+ 3.800 ft 200° 200° 8 kt METAR EHGG 132255Z AUTO 20008KT 170V230 9999 OVC038 14/12 Q1011
00:25
V
14 °C 10 km+ 3.700 ft 200° 200° 9 kt METAR EHGG 132225Z AUTO 20009KT 9999 OVC037 14/12 Q1011

2024年7月13日

时间 代码 天气 温度 能见度 天花板 METAR/SPECI
23:55
V
14 °C 10 km+ 3.600 ft 200° 200° 8 kt METAR EHGG 132155Z AUTO 20008KT 170V230 9999 OVC036 14/12 Q1010
23:25
V
13 °C 10 km+ 4.100 ft 210° 210° 8 kt METAR EHGG 132125Z AUTO 21008KT 9999 FEW024 OVC041 13/12 Q1011
22:55
V
13 °C 10 km+ - 210° 210° 10 kt METAR EHGG 132055Z AUTO 21010KT 180V240 9999 FEW008/// SCT045/// 13/12 Q1011
22:25
M
14 °C 10 km+ 1.200 ft 210° 210° 11 kt METAR EHGG 132025Z AUTO 21011KT 9999 FEW006 SCT010 BKN012 14/13 Q1011 REDZ BECMG BKN016
21:55
M
14 °C 10 km+ 1.300 ft 210° 210° 10 kt METAR EHGG 131955Z AUTO 21010KT 9999 -RA FEW006 SCT010 BKN013 14/13 Q1010 BECMG BKN016
21:25
M
14 °C 10 km+ 1.700 ft 210° 210° 10 kt METAR EHGG 131925Z AUTO 21010KT 9999 SCT011 BKN017 OVC021 14/13 Q1010 NOSIG
20:55
V
15 °C 10 km+ - 220° 220° 13 kt METAR EHGG 131855Z AUTO 22013KT 180V250 9999 FEW013 SCT031 15/13 Q1010 TEMPO 6000 -SHRA FEW020CB
20:25
V
15 °C 10 km+ 3.100 ft 230° 230° 14 kt METAR EHGG 131825Z AUTO 23014KT 9999 FEW017 BKN031 BKN037 15/14 Q1010 REDZ TEMPO 6000 -SHRA FEW020CB
19:55
M
16 °C 10 km+ 1.100 ft 230° 230° 10 kt METAR EHGG 131755Z AUTO 23010KT 200V260 9999 FEW009 BKN011 OVC013 16/14 Q1010 TEMPO 6000 -SHRA FEW020CB BECMG BKN016
19:25
M
16 °C 10 km+ 1.400 ft 230° 230° 14 kt METAR EHGG 131725Z AUTO 23014KT 200V260 9999 FEW011 BKN014 BKN016 16/14 Q1010 TEMPO 6000 -SHRA FEW020CB BECMG BKN016
18:55
V
15 °C 10 km+ 3.900 ft 230° 230° 15 kt METAR EHGG 131655Z AUTO 23015KT 9999 -RADZ FEW023 SCT035 BKN039 15/14 Q1010 TEMPO 6000 -SHRA FEW020CB
18:25
M
15 °C 10 km+ 1.400 ft 240° 240° 10 kt METAR EHGG 131625Z AUTO 24010KT 210V270 9999 -RA SCT012 BKN014 FEW015CB OVC017 15/14 Q1009 REDZRA TEMPO 6000 -SHRA BKN014 FEW020CB
17:55
M
16 °C 10 km+ 1.900 ft 230° 230° 14 kt METAR EHGG 131555Z AUTO 23014KT 200V260 9999 FEW002 BKN019 BKN026 16/14 Q1009 RERA TEMPO 6000 -SHRA BKN014 FEW020CB
17:25
I
15 °C 3,4 km 700 ft 240° 240° 15 kt METAR EHGG 131525Z AUTO 24015KT 200V270 3400 SHRA FEW004 SCT006 BKN007 FEW015CB 15/14 Q1009 TEMPO 6000 -SHRA BKN014 FEW020CB
16:55
M
16 °C 10 km+ 1.400 ft 240° 240° 14 kt METAR EHGG 131455Z AUTO 24014KT 200V280 9999 FEW011 BKN014 FEW015CB BKN018 16/15 Q1009 RERA TEMPO 5000 SHRA FEW020CB
16:25
V
16 °C 10 km+ - 230° 230° 17 kt METAR EHGG 131425Z AUTO 23017KT 9999 FEW016/// SCT045/// 16/15 Q1009 RERADZ TEMPO 5000 SHRA FEW020CB
15:55
M
18 °C 10 km+ 1.900 ft 240° 240° 16 kt METAR EHGG 131355Z AUTO 24016KT 210V270 9999 BKN019/// BKN022/// OVC026/// 18/14 Q1008 REDZ TEMPO 7000 -SHRA FEW020CB
15:25
M
17 °C 10 km+ 3.000 ft 220° 220° 18 - 28 kt METAR EHGG 131325Z AUTO 22018G28KT 190V250 9999 FEW023/// SCT026/// BKN030/// 17/14 Q1008 REDZ TEMPO 7000 -SHRA FEW020CB
14:55
M
17 °C 10 km+ 2.900 ft 220° 220° 15 kt METAR EHGG 131255Z AUTO 22015KT 180V250 9999 FEW020/// SCT023/// BKN029/// 17/14 Q1008 NOSIG
14:25
V
18 °C 10 km+ - 250° 250° 13 kt METAR EHGG 131225Z AUTO 25013KT 210V280 9999 FEW013 FEW015CB 18/15 Q1008 NOSIG
13:55
M
16 °C 7 km - 240° 240° 12 kt METAR EHGG 131155Z AUTO 24012KT 210V280 7000 -SHRA FEW007/// SCT046/// 16/15 Q1008 RERA NOSIG
13:25
M
17 °C 10 km+ 2.700 ft 250° 250° 12 kt METAR EHGG 131125Z AUTO 25012KT 220V280 9999 FEW009/// SCT017/// BKN027/// 17/15 Q1008 RERA NOSIG
12:55
M
16 °C 7 km 2.000 ft 250° 250° 10 kt METAR EHGG 131055Z AUTO 25010KT 210V300 7000 SHRA SCT006/// SCT016/// BKN020/// 16/15 Q1007 TEMPO 7000 -SHRA -RA BKN015 FEW020TCU
12:25
V
18 °C 10 km+ - 220° 220° 12 kt METAR EHGG 131025Z AUTO 22012KT 9999 FEW014/// 18/16 Q1007 TEMPO 7000 -SHRA -RA BKN015 FEW020TCU
11:55
M
17 °C 10 km+ 2.500 ft 230° 230° 11 kt METAR EHGG 130955Z AUTO 23011KT 210V270 9999 FEW014 SCT016 BKN025 17/14 Q1007 TEMPO 7000 -SHRA -RA BKN015 FEW020TCU
11:25
V
17 °C 10 km+ - 240° 240° 11 kt METAR EHGG 130925Z AUTO 24011KT 210V270 9999 FEW012 FEW015CB 17/15 Q1007 REDZ TEMPO 7000 -SHRA -RA BKN015 FEW020TCU
10:55
M
18 °C 10 km+ 2.200 ft 210° 210° 10 kt METAR EHGG 130855Z AUTO 21010KT 170V250 9999 FEW012/// SCT014/// BKN022/// 18/15 Q1007 RERA TEMPO 7000 -SHRA -RA BKN015 FEW020TCU
10:25
V
18 °C 10 km+ 4.400 ft 210° 210° 12 kt METAR EHGG 130825Z AUTO 21012KT 180V240 9999 FEW010/// SCT016/// BKN044/// 18/15 Q1007 TEMPO 7000 -SHRA -RA BKN015 FEW020TCU
09:55
V
17 °C 10 km+ 3.400 ft 210° 210° 12 kt METAR EHGG 130755Z AUTO 21012KT 9999 FEW010/// SCT013/// BKN034/// 17/14 Q1007 TEMPO 7000 -SHRA -RA BKN015 FEW020TCU
09:25
M
16 °C 10 km+ 1.600 ft 220° 220° 11 kt METAR EHGG 130725Z AUTO 22011KT 9999 FEW012/// BKN016/// OVC019/// 16/14 Q1007 TEMPO 7000 -SHRA -RA BKN015 FEW020TCU
08:55
M
16 °C 10 km+ 1.100 ft 220° 220° 12 kt METAR EHGG 130655Z AUTO 22012KT 190V250 9999 FEW007/// SCT009/// BKN011/// 16/14 Q1007 TEMPO 7000 -SHRA -RA BKN012 FEW020TCU
08:25
I
15 °C 10 km+ 700 ft 230° 230° 12 kt METAR EHGG 130625Z AUTO 23012KT 200V260 9999 FEW005/// BKN007/// BKN008/// 15/14 Q1007 TEMPO 7000 -SHRA -RA BKN012 FEW020TCU
07:55
I
15 °C 10 km+ 800 ft 220° 220° 12 kt METAR EHGG 130555Z AUTO 22012KT 9999 FEW006/// SCT007/// BKN008/// 15/14 Q1007 TEMPO 7000 -SHRA -RA BKN012 FEW020TCU
报告变更